Time;durP1;ratioP1;P1;durP2;ratioP2;P2;SDS_P1;SDS_P2;PMS_P1;PMS_P2;Temp;Humidity;BMP_temperature;BMP_pressure;BME280_temperature;BME280_humidity;BME280_pressure;Samples;Min_cycle;Max_cycle;Signal;HPM_P1;HPM_P2
2022/06/20 00:01:37;;;;;;;7.25;2.75;;;13.70;99.90;;;;;;5022876;28;20053;-46
2022/06/20 00:04:14;;;;;;;11.82;3.28;;;13.60;99.90;;;;;;5022907;28;20072;-44
2022/06/20 00:06:40;;;;;;;7.13;3.20;;;13.70;99.90;;;;;;5036266;28;20131;-44
2022/06/20 00:09:06;;;;;;;9.45;3.28;;;13.70;99.90;;;;;;5015185;28;20441;-44
2022/06/20 00:11:38;;;;;;;7.80;3.05;;;13.60;99.90;;;;;;5022090;28;20467;-43
2022/06/20 00:14:04;;;;;;;8.90;3.05;;;13.60;99.90;;;;;;5020937;28;20499;-43
2022/06/20 00:16:33;;;;;;;6.97;2.85;;;13.60;99.90;;;;;;5022366;28;20158;-45
2022/06/20 00:18:59;;;;;;;8.60;2.67;;;13.60;99.90;;;;;;5020187;28;20498;-44
2022/06/20 00:21:25;;;;;;;6.45;2.67;;;13.50;99.90;;;;;;5005744;28;20061;-44
2022/06/20 00:23:54;;;;;;;9.77;2.95;;;13.60;99.90;;;;;;5022160;28;20048;-44
2022/06/20 00:26:20;;;;;;;9.82;2.70;;;13.50;99.90;;;;;;5022501;28;20419;-45
2022/06/20 00:28:46;;;;;;;11.32;3.35;;;13.50;99.90;;;;;;5022296;28;20057;-44
2022/06/20 00:31:12;;;;;;;6.15;2.30;;;13.50;99.90;;;;;;5021962;28;20556;-44
2022/06/20 00:33:39;;;;;;;8.82;3.05;;;13.50;99.90;;;;;;5020971;28;20478;-47
2022/06/20 00:36:05;;;;;;;8.00;2.80;;;13.40;99.90;;;;;;5021924;28;20119;-45
2022/06/20 00:38:32;;;;;;;5.57;2.47;;;13.40;99.90;;;;;;5021807;28;20045;-44
2022/06/20 00:41:03;;;;;;;12.32;2.85;;;13.40;99.90;;;;;;5022594;28;20045;-44
2022/06/20 00:43:42;;;;;;;8.18;2.40;;;13.40;99.90;;;;;;5022167;28;20132;-45
2022/06/20 00:46:34;;;;;;;11.23;3.25;;;13.40;99.90;;;;;;5035050;28;20048;-47
2022/06/20 00:49:12;;;;;;;8.48;2.60;;;13.40;99.90;;;;;;4961312;28;20062;-48
2022/06/20 00:52:05;;;;;;;9.57;2.40;;;13.40;99.90;;;;;;4947906;28;20086;-48
2022/06/20 00:54:56;;;;;;;7.32;2.25;;;13.40;99.90;;;;;;4948890;28;20051;-46
2022/06/20 00:57:35;;;;;;;8.07;2.55;;;13.30;99.90;;;;;;4960204;28;20536;-46
2022/06/20 01:00:16;;;;;;;8.52;2.70;;;13.20;99.90;;;;;;4953364;28;20070;-44
2022/06/20 01:02:46;;;;;;;6.07;2.53;;;13.20;99.90;;;;;;4952638;28;20058;-44
2022/06/20 01:05:24;;;;;;;7.85;2.42;;;13.10;99.90;;;;;;4953773;28;20061;-45
2022/06/20 01:08:01;;;;;;;8.65;3.25;;;13.10;99.90;;;;;;4953882;28;20059;-43
2022/06/20 01:10:32;;;;;;;9.63;2.97;;;13.00;99.90;;;;;;4948400;28;20055;-45
2022/06/20 01:13:04;;;;;;;7.13;2.22;;;13.00;99.90;;;;;;4951942;28;20062;-43
2022/06/20 01:15:40;;;;;;;9.65;2.40;;;12.90;99.90;;;;;;4959773;28;20386;-44
2022/06/20 01:18:17;;;;;;;10.38;2.55;;;12.90;99.90;;;;;;4952865;28;20591;-45
2022/06/20 01:20:44;;;;;;;5.43;2.33;;;12.90;99.90;;;;;;4959575;28;20062;-44
2022/06/20 01:23:27;;;;;;;8.13;2.92;;;12.80;99.90;;;;;;4952148;28;20138;-46
2022/06/20 01:26:12;;;;;;;6.28;2.60;;;12.70;99.90;;;;;;4990224;28;20063;-44
2022/06/20 01:28:42;;;;;;;8.00;2.28;;;12.60;99.90;;;;;;5040242;28;20056;-43
2022/06/20 01:31:10;;;;;;;9.63;2.97;;;12.60;99.90;;;;;;5040745;28;20085;-46
2022/06/20 01:33:37;;;;;;;8.63;1.90;;;12.50;99.90;;;;;;5015029;28;20333;-43
2022/06/20 01:38:48;;;;;;;11.32;2.42;;;12.40;99.90;;;;;;5020848;28;20187;-43
2022/06/20 01:44:07;;;;;;;4.60;2.10;;;12.30;99.90;;;;;;4976186;28;20466;-44
2022/06/20 01:46:34;;;;;;;7.18;2.30;;;12.20;99.90;;;;;;4995192;28;20562;-43
2022/06/20 01:49:12;;;;;;;6.95;2.17;;;12.20;99.90;;;;;;4997908;28;20611;-44
2022/06/20 01:51:40;;;;;;;7.15;2.20;;;12.20;99.90;;;;;;4998543;28;20041;-45
2022/06/20 01:54:09;;;;;;;6.75;2.40;;;12.10;99.90;;;;;;4982465;28;20050;-43
2022/06/20 01:56:35;;;;;;;5.57;2.25;;;12.10;99.90;;;;;;4991733;28;20050;-42
2022/06/20 01:59:09;;;;;;;10.32;2.45;;;12.00;99.90;;;;;;5000963;28;20053;-44
2022/06/20 02:01:37;;;;;;;6.53;2.50;;;12.00;99.90;;;;;;4998264;28;20264;-43
2022/06/20 02:04:15;;;;;;;5.82;2.25;;;12.00;99.90;;;;;;4990187;28;20054;-43
2022/06/20 02:06:41;;;;;;;8.05;2.58;;;11.90;99.90;;;;;;4988342;28;20610;-44
2022/06/20 02:09:09;;;;;;;9.65;2.58;;;11.90;99.90;;;;;;4981489;28;20065;-44
2022/06/20 02:11:39;;;;;;;12.88;2.35;;;11.90;99.90;;;;;;4997434;28;20066;-43
2022/06/20 02:14:19;;;;;;;6.03;2.38;;;11.90;99.90;;;;;;4997306;28;20670;-44
2022/06/20 02:16:50;;;;;;;6.32;2.65;;;11.80;99.90;;;;;;4990700;28;20506;-43
2022/06/20 02:19:24;;;;;;;8.32;2.70;;;11.80;99.90;;;;;;4983686;28;20050;-45
2022/06/20 02:21:52;;;;;;;7.40;2.80;;;11.80;99.90;;;;;;5034309;28;20412;-46
2022/06/20 02:24:21;;;;;;;8.32;2.25;;;11.70;99.90;;;;;;5030461;28;20041;-45
2022/06/20 02:26:52;;;;;;;8.57;2.65;;;11.70;99.90;;;;;;5021233;28;20049;-43
2022/06/20 02:29:26;;;;;;;6.63;2.95;;;11.70;99.90;;;;;;5020567;28;20100;-44
2022/06/20 02:32:15;;;;;;;6.40;2.42;;;11.60;99.90;;;;;;5021083;28;20052;-43
2022/06/20 02:34:41;;;;;;;8.73;3.10;;;11.70;99.90;;;;;;5020417;28;20508;-43
2022/06/20 02:37:13;;;;;;;7.97;2.60;;;11.70;99.90;;;;;;5021111;28;20156;-45
2022/06/20 02:39:41;;;;;;;7.65;2.40;;;11.70;99.90;;;;;;5020202;28;20443;-46
2022/06/20 02:42:13;;;;;;;8.02;2.20;;;11.70;99.90;;;;;;5020473;28;20537;-43
2022/06/20 02:44:43;;;;;;;8.50;2.58;;;11.70;99.90;;;;;;5021667;28;20090;-44
2022/06/20 02:47:10;;;;;;;6.82;2.22;;;11.70;99.90;;;;;;5038706;28;20150;-44
2022/06/20 02:49:39;;;;;;;8.02;2.55;;;11.70;99.90;;;;;;5014579;28;20053;-44
2022/06/20 02:52:08;;;;;;;4.60;2.25;;;11.70;99.90;;;;;;5022379;28;20049;-43
2022/06/20 02:54:36;;;;;;;9.07;2.65;;;11.70;99.90;;;;;;5029029;28;20455;-43
2022/06/20 02:57:08;;;;;;;6.55;2.30;;;11.70;99.90;;;;;;5020738;28;20464;-44
2022/06/20 02:59:41;;;;;;;9.15;2.60;;;11.70;99.90;;;;;;5019715;28;20445;-43
2022/06/20 03:02:12;;;;;;;5.25;2.20;;;11.70;99.90;;;;;;4999100;28;20049;-44
2022/06/20 03:04:42;;;;;;;6.43;2.38;;;11.70;99.90;;;;;;5019755;28;20046;-44
2022/06/20 03:07:28;;;;;;;7.13;2.53;;;11.60;99.90;;;;;;5033240;28;20407;-44
2022/06/20 03:10:01;;;;;;;8.68;2.50;;;11.50;99.90;;;;;;5016093;28;20174;-43
2022/06/20 03:12:34;;;;;;;7.20;2.60;;;11.40;99.90;;;;;;5023056;28;20132;-45
2022/06/20 03:15:01;;;;;;;7.55;2.70;;;11.40;99.90;;;;;;5022440;28;20521;-44
2022/06/20 03:17:32;;;;;;;5.47;2.33;;;11.40;99.90;;;;;;5028255;28;20080;-44
2022/06/20 03:20:03;;;;;;;7.15;2.22;;;11.30;99.90;;;;;;5043822;28;20178;-45
2022/06/20 03:22:35;;;;;;;7.20;2.70;;;11.30;99.90;;;;;;5037090;28;20625;-42
2022/06/20 03:25:02;;;;;;;9.63;2.73;;;11.20;99.90;;;;;;5027428;28;20133;-42
2022/06/20 03:27:32;;;;;;;7.65;3.20;;;11.20;99.90;;;;;;5023541;28;20125;-46
2022/06/20 03:30:17;;;;;;;7.63;3.72;;;11.20;99.90;;;;;;5023727;28;20084;-43
2022/06/20 03:32:43;;;;;;;5.00;2.90;;;11.20;99.90;;;;;;5023245;28;20049;-45
2022/06/20 03:35:09;;;;;;;9.00;2.78;;;11.20;99.90;;;;;;5023555;28;20397;-44
2022/06/20 03:37:37;;;;;;;8.75;3.00;;;11.10;99.90;;;;;;5023547;28;20482;-44
2022/06/20 03:40:03;;;;;;;11.27;2.85;;;11.20;99.90;;;;;;5022559;28;20524;-44
2022/06/20 03:42:29;;;;;;;6.00;2.63;;;11.20;99.90;;;;;;5032936;28;20037;-43
2022/06/20 03:44:58;;;;;;;9.10;2.97;;;11.20;99.90;;;;;;5027177;28;20150;-44
2022/06/20 03:47:33;;;;;;;8.43;2.80;;;11.20;99.90;;;;;;5043660;28;20068;-44
2022/06/20 03:50:31;;;;;;;5.22;2.90;;;11.10;99.90;;;;;;5042986;28;20538;-46
2022/06/20 03:53:12;;;;;;;8.00;3.10;;;11.20;99.90;;;;;;5041800;28;20107;-44
2022/06/20 03:55:49;;;;;;;10.05;3.55;;;11.10;99.90;;;;;;5042749;28;20102;-44
2022/06/20 03:58:29;;;;;;;7.47;2.90;;;11.30;99.90;;;;;;5028448;28;20103;-44
2022/06/20 04:01:01;;;;;;;8.88;3.03;;;11.80;99.90;;;;;;5022395;28;20060;-45
2022/06/20 04:03:38;;;;;;;3.30;1.92;;;12.70;99.90;;;;;;5022595;28;20396;-43
2022/06/20 04:06:18;;;;;;;8.32;2.80;;;13.60;99.90;;;;;;5023531;28;20407;-45
2022/06/20 04:12:23;;;;;;;8.68;2.85;;;15.40;99.90;;;;;;5021870;28;20065;-44
2022/06/20 04:15:10;;;;;;;10.32;2.50;;;16.30;99.90;;;;;;5030090;28;20491;-45
2022/06/20 04:21:09;;;;;;;6.78;3.08;;;17.60;99.90;;;;;;5037714;28;20076;-44
2022/06/20 04:23:37;;;;;;;9.82;2.55;;;18.10;99.90;;;;;;4957330;28;20186;-45
2022/06/20 04:26:15;;;;;;;8.45;2.65;;;18.70;99.90;;;;;;4960479;28;20073;-46
2022/06/20 04:29:02;;;;;;;7.03;2.30;;;19.10;99.90;;;;;;4952344;28;20054;-50
2022/06/20 04:31:47;;;;;;;10.00;4.38;;;19.50;99.90;;;;;;4927230;29;20062;-46
2022/06/20 04:34:34;;;;;;;10.68;2.97;;;19.40;99.90;;;;;;4955221;28;20535;-45
2022/06/20 04:37:28;;;;;;;7.60;2.97;;;18.50;99.90;;;;;;4961152;28;20151;-45
2022/06/20 04:40:11;;;;;;;7.00;2.55;;;17.40;99.90;;;;;;4937451;28;21638;-43
2022/06/20 04:42:52;;;;;;;8.35;3.33;;;16.90;99.90;;;;;;4960189;28;20198;-43
2022/06/20 04:45:30;;;;;;;10.20;3.10;;;16.60;99.90;;;;;;4953137;28;20130;-45
2022/06/20 04:48:09;;;;;;;6.82;3.00;;;17.00;99.90;;;;;;4960191;28;20066;-44
2022/06/20 04:50:35;;;;;;;6.55;2.88;;;18.20;99.90;;;;;;4954197;28;20149;-45
2022/06/20 04:53:08;;;;;;;7.30;3.30;;;19.60;99.90;;;;;;4959788;28;20484;-44
2022/06/20 04:55:38;;;;;;;6.80;3.05;;;20.80;99.90;;;;;;4959999;28;20055;-44
2022/06/20 04:58:09;;;;;;;6.78;3.10;;;21.70;99.90;;;;;;4938539;29;20147;-44
2022/06/20 05:00:39;;;;;;;6.55;2.92;;;22.40;99.90;;;;;;4993122;28;20397;-45
2022/06/20 05:03:13;;;;;;;11.45;3.10;;;23.20;99.90;;;;;;5021767;28;20064;-45
2022/06/20 05:05:42;;;;;;;8.65;3.15;;;23.90;98.10;;;;;;5021296;28;20187;-45
2022/06/20 05:08:12;;;;;;;8.77;3.88;;;24.20;97.50;;;;;;5020283;28;20141;-45
2022/06/20 05:10:46;;;;;;;8.38;3.45;;;24.50;96.30;;;;;;5021268;28;20053;-45
2022/06/20 05:13:15;;;;;;;7.13;3.28;;;24.60;95.40;;;;;;5020691;28;20054;-44
2022/06/20 05:15:45;;;;;;;9.15;3.35;;;24.80;95.60;;;;;;5021517;28;20057;-45
2022/06/20 05:18:34;;;;;;;9.18;3.40;;;25.10;95.10;;;;;;5022545;28;20510;-44
2022/06/20 05:21:08;;;;;;;8.57;3.28;;;25.40;94.50;;;;;;5019910;28;20064;-45
2022/06/20 05:23:40;;;;;;;8.05;3.83;;;25.80;93.60;;;;;;5018100;28;20412;-44
2022/06/20 05:26:12;;;;;;;9.48;3.33;;;26.10;93.30;;;;;;5020977;28;20484;-44
2022/06/20 05:28:39;;;;;;;8.10;3.63;;;26.40;93.70;;;;;;5020783;28;20049;-47
2022/06/20 05:31:06;;;;;;;7.85;3.75;;;26.70;92.90;;;;;;5031444;28;20521;-45
2022/06/20 05:33:41;;;;;;;6.97;3.40;;;26.80;92.40;;;;;;5030336;28;20045;-44
2022/06/20 05:36:22;;;;;;;10.75;3.35;;;27.00;92.00;;;;;;5021344;28;20050;-45
2022/06/20 05:38:57;;;;;;;12.23;3.92;;;27.30;91.20;;;;;;5022033;28;20049;-46
2022/06/20 05:41:24;;;;;;;8.77;3.50;;;27.20;90.20;;;;;;5023532;28;20053;-45
2022/06/20 05:43:50;;;;;;;7.75;4.07;;;27.30;91.20;;;;;;5022283;28;20054;-45
2022/06/20 05:46:30;;;;;;;8.13;3.35;;;27.50;91.10;;;;;;5037480;28;20056;-45
2022/06/20 05:49:03;;;;;;;9.25;3.63;;;27.10;90.10;;;;;;5040797;28;20052;-47
2022/06/20 05:51:33;;;;;;;10.02;3.75;;;26.10;91.00;;;;;;5040642;28;20414;-46
2022/06/20 05:54:09;;;;;;;8.43;3.70;;;25.90;91.40;;;;;;5035457;28;20047;-44
2022/06/20 05:56:46;;;;;;;9.68;3.85;;;26.50;91.10;;;;;;5020035;28;20383;-44
2022/06/20 05:59:27;;;;;;;9.40;3.95;;;27.20;90.50;;;;;;5019677;28;20533;-45
2022/06/20 06:02:10;;;;;;;9.30;3.55;;;27.80;90.00;;;;;;5020466;28;20054;-45
2022/06/20 06:04:43;;;;;;;10.25;3.80;;;28.40;90.00;;;;;;5019533;28;20135;-46
2022/06/20 06:07:38;;;;;;;9.38;3.83;;;28.50;90.00;;;;;;5020974;28;20041;-45
2022/06/20 06:10:04;;;;;;;10.43;4.18;;;28.50;87.80;;;;;;5000691;28;20053;-45
2022/06/20 06:12:37;;;;;;;8.75;3.63;;;28.60;88.80;;;;;;5019979;28;20557;-45
2022/06/20 06:15:16;;;;;;;11.50;3.80;;;28.90;88.00;;;;;;5019396;28;20053;-48
2022/06/20 06:17:56;;;;;;;8.85;4.43;;;28.70;86.50;;;;;;5020385;28;20579;-45
2022/06/20 06:20:24;;;;;;;10.02;3.08;;;28.70;86.90;;;;;;5020716;28;20083;-47
2022/06/20 06:23:02;;;;;;;8.15;3.15;;;28.80;84.00;;;;;;5020258;28;20095;-45
2022/06/20 06:25:34;;;;;;;10.32;3.30;;;29.20;84.50;;;;;;5020658;28;20555;-45
2022/06/20 06:28:05;;;;;;;10.43;3.88;;;29.10;84.00;;;;;;5020717;28;20054;-46
2022/06/20 06:30:41;;;;;;;9.55;3.67;;;27.90;84.80;;;;;;5019715;28;20053;-45
2022/06/20 06:33:20;;;;;;;7.97;3.67;;;28.10;85.80;;;;;;5020296;28;20049;-46
2022/06/20 06:36:00;;;;;;;8.88;3.15;;;28.70;84.00;;;;;;5020902;28;20331;-47
2022/06/20 06:38:41;;;;;;;7.47;3.38;;;28.70;84.80;;;;;;5020026;28;20042;-45
2022/06/20 06:41:14;;;;;;;10.07;3.50;;;28.40;82.80;;;;;;5019910;28;20464;-45
2022/06/20 06:43:44;;;;;;;8.95;3.00;;;28.30;84.00;;;;;;5019938;28;20103;-45
2022/06/20 06:46:29;;;;;;;9.43;3.85;;;28.60;84.00;;;;;;5035218;28;20114;-46
2022/06/20 06:49:35;;;;;;;11.60;3.85;;;28.40;82.10;;;;;;5023591;28;20072;-44
2022/06/20 06:52:07;;;;;;;6.82;2.70;;;27.10;82.70;;;;;;4959004;28;20120;-45
2022/06/20 06:54:41;;;;;;;7.88;3.40;;;25.40;85.10;;;;;;4957562;28;20046;-44
2022/06/20 06:57:30;;;;;;;9.70;4.03;;;24.40;87.30;;;;;;4964255;28;20125;-45
2022/06/20 07:00:15;;;;;;;8.48;3.38;;;24.80;88.60;;;;;;4961400;28;20059;-46
2022/06/20 07:02:52;;;;;;;8.63;3.35;;;25.00;86.60;;;;;;4963187;28;20070;-46
2022/06/20 07:05:43;;;;;;;12.45;3.88;;;24.90;87.10;;;;;;4957467;28;20058;-50
2022/06/20 07:08:14;;;;;;;12.75;3.40;;;25.50;86.50;;;;;;4953141;28;20383;-45
2022/06/20 07:10:52;;;;;;;12.20;4.28;;;25.00;86.50;;;;;;4942453;28;20050;-45
2022/06/20 07:13:30;;;;;;;8.35;3.50;;;23.60;87.90;;;;;;4940361;28;20055;-45
2022/06/20 07:15:59;;;;;;;6.78;3.13;;;23.50;90.10;;;;;;4945337;28;20138;-44
2022/06/20 07:18:33;;;;;;;7.35;3.17;;;24.70;88.00;;;;;;4946998;28;20142;-45
2022/06/20 07:20:59;;;;;;;7.32;3.53;;;26.00;87.70;;;;;;4943873;28;20410;-45
2022/06/20 07:23:25;;;;;;;7.07;3.40;;;26.80;86.20;;;;;;4945113;28;20047;-44
2022/06/20 07:25:51;;;;;;;7.95;2.85;;;27.10;85.60;;;;;;4944613;28;20054;-46
2022/06/20 07:28:40;;;;;;;8.40;3.05;;;25.70;85.00;;;;;;4978992;28;20068;-45
2022/06/20 07:31:34;;;;;;;9.55;3.13;;;24.40;86.30;;;;;;5024562;28;20116;-44
2022/06/20 07:34:16;;;;;;;9.20;4.13;;;22.70;89.30;;;;;;5020501;28;20060;-44
2022/06/20 07:36:54;;;;;;;10.15;2.92;;;21.40;91.10;;;;;;5023015;28;20057;-44
2022/06/20 07:39:29;;;;;;;8.43;3.42;;;21.60;92.50;;;;;;5003503;28;20103;-45
2022/06/20 07:42:08;;;;;;;6.78;3.47;;;22.00;92.60;;;;;;5022525;28;20053;-46
2022/06/20 07:44:49;;;;;;;4.30;2.30;;;22.40;91.60;;;;;;5024843;28;20527;-44
2022/06/20 07:47:20;;;;;;;6.40;2.53;;;22.20;91.10;;;;;;5022280;28;20053;-44
2022/06/20 07:50:12;;;;;;;7.18;1.92;;;22.40;90.60;;;;;;5023025;28;20053;-44
2022/06/20 07:52:49;;;;;;;3.88;1.90;;;22.60;90.50;;;;;;5004232;28;20550;-44
2022/06/20 07:55:23;;;;;;;6.15;1.95;;;22.90;87.80;;;;;;5022035;28;20060;-44
2022/06/20 07:58:14;;;;;;;6.13;2.05;;;22.90;89.20;;;;;;5022732;28;20107;-45
2022/06/20 08:00:47;;;;;;;8.82;2.08;;;23.00;88.90;;;;;;4992687;28;20073;-47
2022/06/20 08:03:18;;;;;;;;;;;23.20;90.10;;;;;;5000975;28;20180;-44
2022/06/20 08:06:13;;;;;;;5.60;2.33;;;22.70;89.40;;;;;;5001346;28;19925;-45
2022/06/20 08:08:58;;;;;;;7.53;2.10;;;22.30;90.10;;;;;;4984558;28;20393;-45
2022/06/20 08:11:40;;;;;;;7.10;2.35;;;22.10;90.60;;;;;;4999171;28;20137;-44
2022/06/20 08:14:16;;;;;;;8.75;2.72;;;22.00;92.30;;;;;;5000541;28;20474;-45
2022/06/20 08:16:44;;;;;;;9.80;2.33;;;22.30;91.90;;;;;;5000749;28;20068;-45
2022/06/20 08:19:10;;;;;;;7.68;2.60;;;22.20;91.30;;;;;;4969083;28;20069;-46
2022/06/20 08:21:42;;;;;;;8.75;2.92;;;22.10;91.30;;;;;;5002089;28;20054;-45
2022/06/20 08:24:17;;;;;;;4.78;2.20;;;21.60;91.90;;;;;;5003288;28;20061;-44
2022/06/20 08:26:57;;;;;;;6.32;2.67;;;21.40;91.60;;;;;;5000872;28;20117;-47
2022/06/20 08:29:57;;;;;;;8.48;2.20;;;20.90;92.50;;;;;;5001271;28;20062;-45
2022/06/20 08:32:35;;;;;;;9.85;3.40;;;20.60;93.00;;;;;;4971028;28;20508;-44
2022/06/20 08:35:19;;;;;;;5.72;1.98;;;20.30;92.30;;;;;;4979921;28;20061;-44
2022/06/20 08:38:16;;;;;;;6.82;2.60;;;20.50;92.40;;;;;;4963828;28;20058;-44
2022/06/20 08:41:03;;;;;;;4.72;2.25;;;20.90;92.10;;;;;;4980186;28;20061;-44
2022/06/20 08:44:07;;;;;;;8.38;2.50;;;21.20;92.30;;;;;;4979480;28;20140;-44
2022/06/20 08:47:10;;;;;;;7.25;2.80;;;21.50;91.70;;;;;;4902513;29;20547;-44
2022/06/20 08:49:41;;;;;;;7.78;2.33;;;21.60;91.70;;;;;;4903201;29;20062;-44
2022/06/20 08:52:34;;;;;;;7.43;2.13;;;21.20;92.30;;;;;;4903011;29;20056;-45
2022/06/20 08:55:14;;;;;;;5.93;2.90;;;21.10;91.60;;;;;;4902658;29;20474;-44
2022/06/20 08:58:12;;;;;;;7.40;3.42;;;21.40;91.10;;;;;;4901719;29;20326;-44
2022/06/20 09:00:56;;;;;;;10.20;3.25;;;21.80;91.70;;;;;;4902959;29;20051;-45
2022/06/20 09:03:40;;;;;;;5.28;2.47;;;21.70;90.90;;;;;;4905930;29;20629;-47
2022/06/20 09:06:19;;;;;;;17.58;3.80;;;22.00;91.90;;;;;;4921737;29;20522;-45
2022/06/20 09:09:08;;;;;;;9.10;2.38;;;22.20;92.00;;;;;;4921927;29;20051;-45
2022/06/20 09:11:43;;;;;;;8.20;2.15;;;22.10;90.40;;;;;;4916820;29;20071;-44
2022/06/20 09:14:39;;;;;;;9.77;2.78;;;21.80;91.00;;;;;;4902764;29;20089;-44
2022/06/20 09:17:39;;;;;;;7.72;3.30;;;21.10;91.90;;;;;;4915976;29;20590;-46
2022/06/20 09:20:28;;;;;;;6.82;2.65;;;20.70;92.10;;;;;;4900947;29;20087;-44
2022/06/20 09:23:15;;;;;;;14.00;4.47;;;20.50;93.40;;;;;;4882989;29;20174;-46
2022/06/20 09:26:00;;;;;;;7.90;2.75;;;20.60;93.70;;;;;;4901193;29;20139;-48
2022/06/20 09:28:37;;;;;;;12.75;2.70;;;20.30;93.30;;;;;;4892728;29;20068;-44
2022/06/20 09:31:06;;;;;;;8.65;2.85;;;20.30;93.70;;;;;;4917673;29;20409;-45
2022/06/20 09:33:57;;;;;;;7.15;2.42;;;19.90;93.60;;;;;;4921540;29;20063;-45
2022/06/20 09:36:57;;;;;;;6.65;2.28;;;19.70;94.20;;;;;;4920878;29;20291;-45
2022/06/20 09:39:35;;;;;;;8.95;2.38;;;19.60;93.90;;;;;;4900140;29;20056;-44
2022/06/20 09:42:29;;;;;;;8.52;2.80;;;19.70;94.50;;;;;;4902960;29;20965;-45
2022/06/20 09:45:03;;;;;;;8.23;2.60;;;20.10;95.30;;;;;;4909143;29;20052;-47
2022/06/20 09:47:45;;;;;;;8.80;2.58;;;20.60;93.50;;;;;;4924139;29;20344;-46
2022/06/20 09:50:17;;;;;;;6.70;2.67;;;20.90;92.70;;;;;;4896726;29;20052;-44
2022/06/20 09:52:51;;;;;;;6.97;2.03;;;21.20;92.30;;;;;;4921485;29;20059;-49
2022/06/20 09:55:35;;;;;;;6.13;2.25;;;21.30;91.40;;;;;;4905340;29;20058;-48
2022/06/20 09:58:00;;;;;;;6.68;2.25;;;21.40;91.50;;;;;;4906107;29;20597;-44
2022/06/20 10:00:41;;;;;;;7.38;2.38;;;21.40;91.40;;;;;;4954306;28;20133;-45
2022/06/20 10:03:13;;;;;;;7.90;2.53;;;21.40;91.90;;;;;;4989433;28;20050;-44
2022/06/20 10:05:51;;;;;;;12.07;4.90;;;21.50;91.70;;;;;;4986409;28;20724;-46
2022/06/20 10:09:05;;;;;;;6.63;2.78;;;21.40;91.90;;;;;;4996942;28;20038;-46
2022/06/20 10:11:33;;;;;;;8.80;3.22;;;21.40;92.50;;;;;;4955735;28;20070;-45
2022/06/20 10:14:08;;;;;;;16.40;6.43;;;21.20;92.70;;;;;;4959897;28;20096;-45
2022/06/20 10:16:49;;;;;;;8.77;3.88;;;21.00;93.30;;;;;;4959608;28;20050;-44
2022/06/20 10:19:28;;;;;;;9.00;2.88;;;20.80;93.20;;;;;;4959086;28;20050;-44
2022/06/20 10:22:09;;;;;;;7.95;3.47;;;21.00;94.00;;;;;;4958684;28;20066;-45
2022/06/20 10:25:04;;;;;;;8.07;3.38;;;21.20;93.60;;;;;;4962656;28;20132;-45
2022/06/20 10:27:45;;;;;;;7.75;3.17;;;21.30;93.80;;;;;;4948236;28;20433;-45
2022/06/20 10:30:17;;;;;;;10.10;2.88;;;21.10;93.20;;;;;;4964968;28;20441;-46
2022/06/20 10:33:01;;;;;;;6.53;2.30;;;20.80;92.80;;;;;;4965413;28;20054;-44
2022/06/20 10:36:05;;;;;;;9.32;3.08;;;20.80;92.80;;;;;;4965964;28;20138;-44
2022/06/20 10:38:50;;;;;;;7.97;2.55;;;21.20;93.90;;;;;;4967339;28;20100;-45
2022/06/20 10:41:36;;;;;;;8.40;2.90;;;21.50;93.70;;;;;;4953368;28;20055;-46
2022/06/20 10:44:04;;;;;;;6.50;2.60;;;21.40;92.60;;;;;;4964287;28;20526;-44
2022/06/20 10:46:43;;;;;;;9.40;2.90;;;21.40;92.30;;;;;;4965408;28;20066;-44
2022/06/20 10:49:27;;;;;;;5.22;2.67;;;21.60;93.40;;;;;;4964900;28;20564;-46
2022/06/20 10:52:16;;;;;;;18.20;4.47;;;21.40;93.10;;;;;;4963581;28;20051;-47
2022/06/20 10:55:00;;;;;;;7.03;2.00;;;21.10;93.60;;;;;;4965266;28;20055;-45
2022/06/20 10:57:40;;;;;;;7.50;2.50;;;20.90;92.60;;;;;;4966012;28;20063;-46
2022/06/20 11:00:17;;;;;;;7.03;2.75;;;21.00;92.70;;;;;;4964845;28;20046;-45
2022/06/20 11:02:52;;;;;;;10.15;2.90;;;20.90;93.80;;;;;;4965522;28;20074;-45
2022/06/20 11:05:22;;;;;;;7.45;2.88;;;20.80;94.30;;;;;;4965918;28;20055;-46
2022/06/20 11:08:23;;;;;;;7.03;2.58;;;20.70;93.90;;;;;;4966533;28;20130;-48
2022/06/20 11:11:24;;;;;;;7.13;2.80;;;20.50;94.60;;;;;;4966687;28;20051;-46
2022/06/20 11:14:11;;;;;;;7.10;2.78;;;20.50;95.10;;;;;;4968955;28;20587;-44
2022/06/20 11:17:10;;;;;;;9.55;2.45;;;20.70;94.30;;;;;;4986777;28;20065;-49
2022/06/20 11:19:36;;;;;;;5.68;2.20;;;21.10;93.30;;;;;;4987909;28;20421;-46
2022/06/20 11:22:02;;;;;;;5.45;2.40;;;21.20;94.10;;;;;;4987634;28;20568;-45
2022/06/20 11:24:38;;;;;;;8.27;2.97;;;21.30;93.10;;;;;;4987587;28;20121;-47
2022/06/20 11:27:32;;;;;;;6.13;2.30;;;21.20;93.50;;;;;;4988107;28;20089;-45
2022/06/20 11:29:58;;;;;;;3.55;1.85;;;21.00;92.00;;;;;;4987327;28;20050;-45
2022/06/20 11:32:38;;;;;;;3.95;2.08;;;20.70;92.10;;;;;;4984403;28;20057;-44
2022/06/20 11:35:30;;;;;;;5.90;2.20;;;20.70;92.20;;;;;;4985295;28;20110;-45
2022/06/20 11:38:22;;;;;;;5.47;2.20;;;20.90;93.20;;;;;;4978794;28;20128;-45
2022/06/20 11:40:57;;;;;;;7.70;2.60;;;20.90;92.70;;;;;;4983061;28;20065;-45
2022/06/20 11:44:06;;;;;;;4.65;2.35;;;20.90;92.00;;;;;;4983134;28;20058;-47
2022/06/20 11:46:44;;;;;;;5.35;2.42;;;20.80;93.60;;;;;;4983875;28;20089;-46
2022/06/20 11:49:44;;;;;;;11.55;3.40;;;20.70;94.20;;;;;;4981534;28;20054;-45
2022/06/20 11:52:28;;;;;;;10.13;2.85;;;20.70;95.00;;;;;;4983258;28;20069;-44
2022/06/20 11:55:16;;;;;;;11.55;3.33;;;20.60;94.30;;;;;;4983531;28;20054;-45
2022/06/20 11:57:46;;;;;;;7.97;2.60;;;20.50;95.20;;;;;;4984437;28;20054;-44
2022/06/20 12:00:18;;;;;;;8.50;2.72;;;20.60;95.10;;;;;;4982856;28;20117;-47
2022/06/20 12:03:14;;;;;;;5.13;2.20;;;20.70;94.60;;;;;;4984418;28;20046;-44
2022/06/20 12:06:04;;;;;;;9.32;2.80;;;20.80;94.90;;;;;;4984077;28;20133;-44
2022/06/20 12:08:51;;;;;;;7.30;2.63;;;20.70;95.20;;;;;;4981625;28;20535;-46
2022/06/20 12:11:39;;;;;;;7.65;2.40;;;20.90;94.10;;;;;;4992211;28;20535;-44
2022/06/20 12:14:24;;;;;;;8.65;2.63;;;20.80;94.00;;;;;;5022883;28;20505;-44
2022/06/20 12:16:55;;;;;;;12.07;2.65;;;20.90;93.90;;;;;;5041297;28;20360;-45
2022/06/20 12:25:39;;;;;;;6.60;2.50;;;21.10;94.60;;;;;;5024098;28;20504;-44
2022/06/20 12:28:36;;;;;;;6.18;2.20;;;21.30;94.30;;;;;;5041197;28;20091;-45
2022/06/20 12:31:07;;;;;;;6.28;2.17;;;21.20;93.20;;;;;;5026424;28;20119;-46
2022/06/20 12:33:36;;;;;;;6.07;3.08;;;21.30;95.00;;;;;;5022880;28;20049;-47
2022/06/20 12:36:14;;;;;;;6.40;2.30;;;21.30;94.30;;;;;;5023572;28;20167;-45
2022/06/20 12:38:47;;;;;;;7.20;2.15;;;21.30;93.30;;;;;;5026716;28;20176;-45
2022/06/20 12:41:18;;;;;;;4.80;2.53;;;21.20;93.30;;;;;;5013550;28;20091;-49
2022/06/20 12:44:15;;;;;;;5.40;2.00;;;21.10;93.70;;;;;;5009851;28;20100;-51
2022/06/20 12:47:17;;;;;;;3.28;1.90;;;21.00;93.30;;;;;;5040257;28;20124;-44
2022/06/20 12:50:07;;;;;;;3.30;1.90;;;21.00;92.50;;;;;;5042022;28;20052;-45
2022/06/20 12:52:53;;;;;;;5.43;2.00;;;20.90;91.70;;;;;;5041874;28;20128;-45
2022/06/20 12:55:36;;;;;;;6.55;2.47;;;21.00;93.10;;;;;;5010341;28;20471;-45
2022/06/20 12:58:28;;;;;;;6.00;2.08;;;20.90;92.90;;;;;;5040928;28;20465;-46
2022/06/20 13:01:35;;;;;;;4.85;1.80;;;20.80;93.30;;;;;;4960831;28;20054;-44
2022/06/20 13:04:13;;;;;;;6.28;2.58;;;20.30;92.50;;;;;;4960564;28;20551;-45
2022/06/20 13:07:09;;;;;;;5.45;2.42;;;20.20;93.70;;;;;;4957919;28;20458;-44
2022/06/20 13:10:08;;;;;;;6.75;2.45;;;20.20;94.40;;;;;;4958942;28;20054;-46
2022/06/20 13:13:01;;;;;;;4.78;2.03;;;20.20;93.90;;;;;;4960030;28;20050;-45
2022/06/20 13:15:48;;;;;;;5.15;2.47;;;20.00;94.70;;;;;;4946824;28;20589;-45
2022/06/20 13:18:19;;;;;;;7.47;2.30;;;20.00;94.80;;;;;;4960004;28;20066;-44
2022/06/20 13:21:01;;;;;;;5.50;2.25;;;20.10;94.90;;;;;;4960025;28;20185;-45
2022/06/20 13:24:13;;;;;;;9.98;2.50;;;20.10;94.50;;;;;;4956937;28;20058;-44
2022/06/20 13:27:07;;;;;;;8.65;2.33;;;20.30;94.80;;;;;;4946829;28;20589;-44
2022/06/20 13:29:35;;;;;;;6.60;2.00;;;20.30;93.40;;;;;;4958970;28;20484;-45
2022/06/20 13:32:10;;;;;;;6.25;2.50;;;20.50;94.30;;;;;;4959153;28;20433;-44
2022/06/20 13:35:02;;;;;;;5.55;2.55;;;20.60;94.00;;;;;;4959958;28;20065;-46
2022/06/20 13:37:46;;;;;;;4.75;2.10;;;20.50;94.80;;;;;;4979833;28;20060;-45
2022/06/20 13:40:37;;;;;;;5.82;2.50;;;20.50;94.40;;;;;;5011111;28;20065;-44
2022/06/20 13:43:24;;;;;;;9.10;2.58;;;20.40;93.90;;;;;;4981688;28;20065;-44
2022/06/20 13:46:19;;;;;;;5.30;1.92;;;20.40;96.20;;;;;;4984908;28;20061;-45
2022/06/20 13:48:52;;;;;;;3.78;2.30;;;20.40;92.90;;;;;;4998255;28;20054;-44
2022/06/20 13:51:25;;;;;;;7.88;2.75;;;20.10;94.00;;;;;;5001915;28;20045;-44
2022/06/20 13:54:16;;;;;;;6.82;2.50;;;20.00;95.30;;;;;;5001901;28;20050;-44
2022/06/20 13:57:15;;;;;;;6.65;2.30;;;19.90;94.20;;;;;;5000373;28;20073;-46
2022/06/20 13:59:50;;;;;;;6.68;2.00;;;19.80;95.20;;;;;;4999848;28;20049;-45
2022/06/20 14:02:32;;;;;;;6.07;2.47;;;19.90;95.10;;;;;;4996451;28;20112;-44